Time;durP1;ratioP1;P1;durP2;ratioP2;P2;SDS_P1;SDS_P2;PMS_P1;PMS_P2;Temp;Humidity;BMP_temperature;BMP_pressure;BME280_temperature;BME280_humidity;BME280_pressure;Samples;Min_cycle;Max_cycle;Signal;HPM_P1;HPM_P2
2022/10/04 00:01:29;;;;;;;3.20;1.63;;;21.00;65.80;;;;;;4961964;28;86870;-84
2022/10/04 00:04:13;;;;;;;3.35;1.83;;;20.90;65.90;;;;;;4961486;28;87639;-84
2022/10/04 00:06:48;;;;;;;3.05;1.65;;;21.00;65.90;;;;;;4961378;28;88858;-84
2022/10/04 00:09:18;;;;;;;3.17;2.00;;;20.90;65.90;;;;;;4961788;28;87978;-84
2022/10/04 00:11:46;;;;;;;3.90;2.30;;;21.00;65.90;;;;;;4976393;28;90201;-84
2022/10/04 00:14:23;;;;;;;4.43;1.90;;;20.90;65.70;;;;;;4960938;28;88640;-84
2022/10/04 00:16:50;;;;;;;5.25;2.15;;;20.90;65.80;;;;;;4960642;28;88345;-84
2022/10/04 00:19:19;;;;;;;2.95;1.70;;;20.90;65.90;;;;;;4960228;28;86980;-84
2022/10/04 00:21:56;;;;;;;3.70;2.03;;;20.90;65.90;;;;;;4961910;28;87177;-83
2022/10/04 00:24:30;;;;;;;3.85;1.80;;;20.90;66.10;;;;;;4960025;28;88477;-84
2022/10/04 00:27:24;;;;;;;3.17;1.63;;;20.90;65.90;;;;;;4961224;28;88126;-84
2022/10/04 00:30:02;;;;;;;4.55;2.10;;;20.90;65.70;;;;;;4961580;28;87388;-84
2022/10/04 00:32:40;;;;;;;2.13;1.48;;;20.90;65.80;;;;;;4962549;28;87553;-83
2022/10/04 00:35:26;;;;;;;4.10;1.80;;;20.90;65.80;;;;;;4959195;28;93104;-84
2022/10/04 00:38:00;;;;;;;3.28;1.95;;;20.90;65.60;;;;;;4938356;28;89250;-84
2022/10/04 00:40:31;;;;;;;3.22;1.95;;;20.90;65.70;;;;;;4939225;28;87543;-83
2022/10/04 00:43:01;;;;;;;3.03;1.65;;;20.90;65.70;;;;;;4922407;28;91195;-84
2022/10/04 00:45:40;;;;;;;3.97;1.80;;;20.90;65.80;;;;;;4939416;28;87623;-84
2022/10/04 00:48:20;;;;;;;3.60;1.85;;;20.90;65.80;;;;;;4938899;28;88275;-84
2022/10/04 00:50:52;;;;;;;3.75;2.25;;;20.90;65.50;;;;;;4939075;28;87473;-84
2022/10/04 00:53:38;;;;;;;3.53;1.67;;;20.90;65.60;;;;;;4939859;28;89813;-84
2022/10/04 00:56:13;;;;;;;2.85;1.63;;;20.90;65.70;;;;;;4937812;28;88612;-84
2022/10/04 00:59:02;;;;;;;3.67;2.03;;;20.90;65.70;;;;;;4938335;28;94475;-85
2022/10/04 01:01:30;;;;;;;4.10;2.10;;;20.90;65.60;;;;;;4937760;28;88487;-84
2022/10/04 01:03:59;;;;;;;3.83;1.90;;;20.90;65.50;;;;;;4939516;28;87485;-84
2022/10/04 01:06:26;;;;;;;4.68;2.22;;;20.90;65.50;;;;;;4921973;28;91994;-84
2022/10/04 01:08:55;;;;;;;2.85;1.95;;;20.90;65.60;;;;;;4938451;28;87851;-83
2022/10/04 01:11:30;;;;;;;3.85;1.98;;;20.90;65.70;;;;;;4922353;28;87359;-84
2022/10/04 01:14:07;;;;;;;2.53;1.50;;;20.90;65.60;;;;;;4939851;28;87532;-84
2022/10/04 01:16:35;;;;;;;3.95;1.70;;;20.80;65.70;;;;;;4950809;28;91936;-84
2022/10/04 01:19:25;;;;;;;2.67;1.70;;;20.80;65.70;;;;;;4960884;28;87554;-84
2022/10/04 01:22:13;;;;;;;2.33;1.27;;;20.80;65.60;;;;;;4960806;28;87411;-84
2022/10/04 01:24:42;;;;;;;3.25;1.67;;;20.80;65.70;;;;;;4960535;28;87484;-84
2022/10/04 01:27:31;;;;;;;4.45;1.90;;;20.80;65.50;;;;;;4960008;28;89587;-83
2022/10/04 01:29:57;;;;;;;3.85;1.83;;;20.80;65.50;;;;;;4959618;28;89015;-84
2022/10/04 01:32:24;;;;;;;2.60;1.70;;;20.80;65.40;;;;;;4961528;28;87154;-84
2022/10/04 01:34:49;;;;;;;3.72;2.03;;;20.80;65.60;;;;;;4960773;28;87472;-84
2022/10/04 01:37:15;;;;;;;2.08;1.40;;;20.80;65.60;;;;;;4959054;28;87401;-84
2022/10/04 01:39:41;;;;;;;4.03;1.80;;;20.70;65.70;;;;;;4958622;28;87983;-84
2022/10/04 01:42:32;;;;;;;2.92;1.83;;;20.70;65.50;;;;;;4960182;28;87262;-84
2022/10/04 01:45:10;;;;;;;4.00;1.83;;;20.70;65.70;;;;;;4960727;28;86395;-83
2022/10/04 01:48:05;;;;;;;3.17;1.42;;;20.70;65.50;;;;;;4959636;28;88327;-84
2022/10/04 01:50:40;;;;;;;2.38;1.65;;;20.70;65.60;;;;;;4898798;28;93213;-84
2022/10/04 01:53:17;;;;;;;2.50;1.60;;;20.80;65.70;;;;;;4898576;28;88105;-84
2022/10/04 01:55:47;;;;;;;2.42;1.73;;;20.70;65.40;;;;;;4898969;28;87341;-84
2022/10/04 01:58:27;;;;;;;3.35;2.10;;;20.70;65.70;;;;;;4898652;28;88105;-83
2022/10/04 02:00:59;;;;;;;3.25;1.67;;;20.70;65.40;;;;;;4897362;28;88409;-83
2022/10/04 02:03:34;;;;;;;3.15;1.77;;;20.70;65.40;;;;;;4899384;28;87575;-84
2022/10/04 02:06:04;;;;;;;2.97;1.70;;;20.70;65.50;;;;;;4883007;28;90743;-84
2022/10/04 02:08:34;;;;;;;3.25;1.60;;;20.70;65.50;;;;;;4899286;28;88079;-83
2022/10/04 02:11:00;;;;;;;;;;;20.70;65.50;;;;;;4899868;28;87976;-83
2022/10/04 02:13:32;;;;;;;3.60;1.70;;;20.70;65.50;;;;;;4892864;28;87017;-84
2022/10/04 02:15:58;;;;;;;2.42;1.63;;;20.70;65.30;;;;;;4898236;28;87088;-84
2022/10/04 02:18:25;;;;;;;3.65;1.67;;;20.60;65.40;;;;;;4897657;28;91440;-84
2022/10/04 02:20:52;;;;;;;3.80;1.77;;;20.60;65.40;;;;;;4898573;28;89216;-84
2022/10/04 02:23:19;;;;;;;1.95;1.45;;;20.60;65.30;;;;;;4899651;28;87101;-83
2022/10/04 02:25:44;;;;;;;4.18;1.60;;;20.70;65.50;;;;;;4890260;28;87722;-84
2022/10/04 02:28:12;;;;;;;3.20;1.75;;;20.60;65.20;;;;;;4948912;28;87147;-84
2022/10/04 02:30:42;;;;;;;2.80;1.80;;;20.60;65.40;;;;;;4974237;28;87655;-84
2022/10/04 02:33:09;;;;;;;3.35;1.85;;;20.60;65.40;;;;;;4956916;28;87204;-84
2022/10/04 02:35:45;;;;;;;2.63;1.60;;;20.60;65.20;;;;;;4960398;28;86310;-84
2022/10/04 02:38:27;;;;;;;2.17;1.40;;;20.60;65.30;;;;;;4958635;28;87961;-84
2022/10/04 02:40:55;;;;;;;2.60;1.52;;;20.60;65.40;;;;;;4959302;28;88629;-84
2022/10/04 02:43:36;;;;;;;2.72;1.50;;;20.60;65.30;;;;;;4958512;28;88267;-84
2022/10/04 02:46:19;;;;;;;2.55;1.52;;;20.60;65.20;;;;;;4958477;28;86949;-84
2022/10/04 02:48:59;;;;;;;1.85;1.50;;;20.60;65.20;;;;;;4958047;28;88395;-84
2022/10/04 02:51:48;;;;;;;2.42;1.42;;;20.60;65.30;;;;;;4958667;28;88302;-84
2022/10/04 02:54:39;;;;;;;3.67;1.85;;;20.60;65.40;;;;;;4956112;28;87403;-84
2022/10/04 02:57:20;;;;;;;2.13;1.40;;;20.60;65.30;;;;;;4958485;28;87442;-84
2022/10/04 02:59:47;;;;;;;3.05;1.63;;;20.60;65.30;;;;;;4958679;28;88601;-84
2022/10/04 03:02:25;;;;;;;3.10;1.60;;;20.60;65.30;;;;;;4959303;28;88318;-84
2022/10/04 03:04:54;;;;;;;2.67;1.63;;;20.60;65.20;;;;;;4958010;28;87591;-84
2022/10/04 03:07:20;;;;;;;2.90;1.65;;;20.60;65.20;;;;;;4958872;28;86845;-84
2022/10/04 03:09:46;;;;;;;2.33;1.58;;;20.60;65.30;;;;;;4972376;28;92259;-84
2022/10/04 03:12:13;;;;;;;2.03;1.60;;;20.50;65.20;;;;;;4958214;28;89371;-84
2022/10/04 03:14:39;;;;;;;2.40;1.50;;;20.50;65.30;;;;;;4959418;28;87310;-84
2022/10/04 03:17:06;;;;;;;2.03;1.30;;;20.50;65.30;;;;;;4958715;28;87724;-83
2022/10/04 03:19:37;;;;;;;2.45;1.60;;;20.50;65.20;;;;;;4957536;28;91730;-84
2022/10/04 03:22:09;;;;;;;2.05;1.40;;;20.50;65.10;;;;;;4949294;28;91342;-84
2022/10/04 03:24:55;;;;;;;1.95;1.38;;;20.50;65.20;;;;;;4957334;28;87642;-84
2022/10/04 03:27:30;;;;;;;2.13;1.30;;;20.50;65.20;;;;;;4958409;28;86651;-84
2022/10/04 03:29:58;;;;;;;2.58;1.65;;;20.50;65.30;;;;;;4958312;28;88691;-84
2022/10/04 03:32:24;;;;;;;2.63;1.33;;;20.50;65.30;;;;;;4958177;28;88344;-84
2022/10/04 03:35:02;;;;;;;2.67;1.70;;;20.50;65.30;;;;;;4957797;28;88232;-84
2022/10/04 03:37:33;;;;;;;2.45;1.33;;;20.50;65.20;;;;;;4958074;28;88983;-83
2022/10/04 03:40:00;;;;;;;2.15;1.33;;;20.50;65.10;;;;;;4956246;28;90362;-83
2022/10/04 03:42:29;;;;;;;2.08;1.40;;;20.50;65.00;;;;;;4957829;28;88441;-84
2022/10/04 03:45:05;;;;;;;2.55;1.40;;;20.50;65.20;;;;;;4957962;28;87369;-84
2022/10/04 03:47:36;;;;;;;3.80;1.70;;;20.40;65.20;;;;;;4959412;28;87357;-84
2022/10/04 03:50:26;;;;;;;2.42;1.60;;;20.40;65.30;;;;;;4957761;28;88366;-84
2022/10/04 03:53:07;;;;;;;2.83;1.48;;;20.50;65.00;;;;;;4943764;28;88614;-84
2022/10/04 03:55:36;;;;;;;2.90;1.88;;;20.50;65.10;;;;;;4944353;28;89193;-83
2022/10/04 03:58:02;;;;;;;2.97;1.33;;;20.40;65.00;;;;;;4945232;28;91048;-84
2022/10/04 04:00:28;;;;;;;2.35;1.48;;;20.40;65.00;;;;;;4943765;28;89164;-84
2022/10/04 04:03:06;;;;;;;2.33;1.50;;;20.40;64.90;;;;;;4930208;28;91054;-84
2022/10/04 04:05:43;;;;;;;2.60;1.63;;;20.50;65.90;;;;;;4948763;28;87705;-84
2022/10/04 04:08:22;;;;;;;2.20;1.50;;;20.40;65.10;;;;;;4947418;28;87465;-84
2022/10/04 04:10:54;;;;;;;1.38;1.20;;;20.40;65.00;;;;;;4949295;28;88735;-84
2022/10/04 04:13:25;;;;;;;2.83;1.77;;;20.40;64.90;;;;;;4939784;28;87878;-84
2022/10/04 04:15:53;;;;;;;2.47;1.40;;;20.40;64.90;;;;;;4948967;28;86849;-84
2022/10/04 04:18:22;;;;;;;1.33;1.23;;;20.40;64.80;;;;;;4948677;28;86555;-84
2022/10/04 04:20:50;;;;;;;1.55;1.38;;;20.40;65.00;;;;;;4945962;28;87511;-84
2022/10/04 04:23:31;;;;;;;2.58;1.63;;;20.40;64.80;;;;;;4946710;28;92384;-84
2022/10/04 04:26:19;;;;;;;2.70;1.73;;;20.40;65.10;;;;;;4938823;28;88398;-84
2022/10/04 04:28:47;;;;;;;2.13;1.40;;;20.40;65.00;;;;;;4909545;28;87734;-84
2022/10/04 04:31:39;;;;;;;2.78;1.50;;;20.40;64.90;;;;;;4918159;28;88310;-84
2022/10/04 04:34:16;;;;;;;3.15;1.83;;;20.40;64.90;;;;;;4919804;28;88520;-84
2022/10/04 04:36:42;;;;;;;2.30;1.42;;;20.30;64.90;;;;;;4920038;28;87310;-84
2022/10/04 04:39:33;;;;;;;1.52;1.20;;;20.40;65.00;;;;;;4919333;28;87884;-84
2022/10/04 04:42:32;;;;;;;1.75;1.25;;;20.40;65.00;;;;;;4919365;28;87857;-84
2022/10/04 04:45:14;;;;;;;2.85;1.85;;;20.40;65.10;;;;;;4845878;29;91716;-84
2022/10/04 04:47:46;;;;;;;2.22;1.48;;;20.40;64.80;;;;;;4862417;29;87456;-84
2022/10/04 04:50:14;;;;;;;1.48;1.25;;;20.40;64.60;;;;;;4860793;29;87787;-83
2022/10/04 04:52:44;;;;;;;2.45;1.30;;;20.40;64.50;;;;;;4860979;28;89041;-85
2022/10/04 04:55:26;;;;;;;2.13;1.30;;;20.50;64.50;;;;;;4861400;29;89368;-85
2022/10/04 04:57:54;;;;;;;3.50;1.48;;;20.40;64.40;;;;;;4862519;29;87469;-86
2022/10/04 05:00:28;;;;;;;3.60;1.27;;;20.50;64.50;;;;;;4862516;29;89808;-88
2022/10/04 05:02:59;;;;;;;1.98;1.30;;;20.50;64.60;;;;;;4863069;29;88723;-88
2022/10/04 05:05:32;;;;;;;4.03;1.80;;;20.50;64.40;;;;;;4874017;28;88023;-84
2022/10/04 05:08:14;;;;;;;3.53;1.33;;;20.40;62.70;;;;;;4899524;28;87499;-86
2022/10/04 05:10:45;;;;;;;2.88;1.63;;;20.50;62.30;;;;;;4899188;28;86875;-85
2022/10/04 05:13:12;;;;;;;1.20;1.10;;;20.50;62.20;;;;;;4897973;28;89149;-85
2022/10/04 05:15:40;;;;;;;3.25;1.63;;;20.40;63.50;;;;;;4882158;28;91618;-86
2022/10/04 05:18:30;;;;;;;3.40;1.75;;;20.40;63.00;;;;;;4882969;28;88740;-86
2022/10/04 05:21:03;;;;;;;2.42;1.80;;;20.30;62.90;;;;;;4903156;28;90333;-86
2022/10/04 05:23:28;;;;;;;3.22;1.50;;;20.40;63.00;;;;;;4960502;28;87408;-85
2022/10/04 05:25:54;;;;;;;5.50;1.65;;;20.40;62.80;;;;;;4958869;28;94250;-86
2022/10/04 05:28:20;;;;;;;2.60;1.48;;;20.40;63.50;;;;;;4959621;28;86917;-86
2022/10/04 05:31:01;;;;;;;2.58;1.50;;;20.40;62.60;;;;;;4959912;28;87507;-86
2022/10/04 05:33:43;;;;;;;3.03;1.73;;;20.30;62.70;;;;;;4960965;28;88417;-84
2022/10/04 05:36:09;;;;;;;1.52;1.27;;;20.30;62.50;;;;;;4959371;28;88269;-86
2022/10/04 05:38:53;;;;;;;1.90;1.40;;;20.30;62.40;;;;;;4961990;28;87264;-86
2022/10/04 05:41:38;;;;;;;2.83;1.40;;;20.30;62.40;;;;;;4960133;28;91912;-85
2022/10/04 05:44:19;;;;;;;2.80;1.60;;;20.30;62.40;;;;;;4957409;28;92982;-85
2022/10/04 05:46:45;;;;;;;2.22;1.60;;;20.30;62.40;;;;;;4960722;28;88932;-86
2022/10/04 05:49:12;;;;;;;3.55;2.00;;;20.30;62.50;;;;;;4961102;28;87433;-85
2022/10/04 05:52:10;;;;;;;2.85;1.65;;;20.30;62.40;;;;;;4958105;28;88732;-86
2022/10/04 05:54:36;;;;;;;3.22;1.60;;;20.30;62.30;;;;;;4959591;28;87342;-86
2022/10/04 05:57:11;;;;;;;3.15;1.60;;;20.30;62.50;;;;;;4958559;28;91536;-86
2022/10/04 06:00:19;;;;;;;5.88;1.67;;;20.30;62.50;;;;;;4960363;28;86956;-84
2022/10/04 06:02:49;;;;;;;3.88;1.70;;;20.30;62.40;;;;;;4898808;28;94450;-86
2022/10/04 06:05:38;;;;;;;6.35;1.75;;;20.20;62.40;;;;;;4900684;28;88901;-85
2022/10/04 06:08:15;;;;;;;7.05;2.78;;;20.30;62.30;;;;;;4898853;28;87908;-85
2022/10/04 06:11:08;;;;;;;11.80;3.65;;;20.30;62.30;;;;;;4899011;28;88889;-84
2022/10/04 06:13:51;;;;;;;9.65;2.53;;;20.30;62.40;;;;;;4891295;28;88744;-86
2022/10/04 06:16:28;;;;;;;6.55;2.95;;;20.20;62.10;;;;;;4899481;28;88345;-86
2022/10/04 06:19:22;;;;;;;5.90;2.17;;;20.30;62.40;;;;;;4899027;28;88455;-85
2022/10/04 06:22:16;;;;;;;6.63;2.30;;;20.30;62.00;;;;;;4897946;28;87152;-89
2022/10/04 06:24:47;;;;;;;8.13;2.60;;;20.30;62.00;;;;;;4849500;29;87397;-83
2022/10/04 06:27:40;;;;;;;12.95;2.42;;;20.40;61.90;;;;;;4849123;29;88652;-84
2022/10/04 06:30:13;;;;;;;7.95;2.67;;;20.50;61.90;;;;;;4856448;29;86924;-83
2022/10/04 06:33:03;;;;;;;8.98;2.53;;;20.60;61.80;;;;;;4849420;29;87789;-83
2022/10/04 06:35:47;;;;;;;10.15;2.70;;;20.70;61.60;;;;;;4849219;29;91769;-84
2022/10/04 06:38:22;;;;;;;17.55;3.08;;;20.80;61.60;;;;;;4849769;29;88099;-84
2022/10/04 06:40:57;;;;;;;17.00;3.40;;;20.90;61.40;;;;;;4899878;28;88938;-83
2022/10/04 06:43:56;;;;;;;18.38;4.00;;;21.10;61.30;;;;;;4907388;28;87491;-84
2022/10/04 06:46:42;;;;;;;14.15;3.22;;;21.20;60.80;;;;;;4906930;28;87057;-84
2022/10/04 06:49:35;;;;;;;11.27;4.05;;;21.50;60.80;;;;;;4892721;28;91196;-83
2022/10/04 06:52:15;;;;;;;13.18;3.70;;;21.70;59.30;;;;;;4906506;28;91188;-84
2022/10/04 06:55:05;;;;;;;18.38;3.80;;;21.90;59.30;;;;;;4859286;29;87149;-84
2022/10/04 06:57:39;;;;;;;19.58;4.72;;;22.00;59.00;;;;;;4859493;29;88076;-84
2022/10/04 07:00:20;;;;;;;14.98;4.30;;;22.10;58.70;;;;;;4859810;29;88836;-85
2022/10/04 07:02:57;;;;;;;25.27;6.88;;;22.20;58.70;;;;;;4912997;28;88391;-85
2022/10/04 07:05:46;;;;;;;24.55;6.50;;;22.20;57.70;;;;;;4916991;28;88354;-84
2022/10/04 07:08:31;;;;;;;26.27;7.15;;;22.20;57.80;;;;;;4915739;28;87263;-84
2022/10/04 07:11:21;;;;;;;29.65;7.10;;;22.00;57.30;;;;;;4917182;28;90096;-84
2022/10/04 07:14:01;;;;;;;45.55;9.95;;;21.90;57.70;;;;;;4916227;28;91005;-86
2022/10/04 07:16:32;;;;;;;61.25;10.25;;;22.00;57.20;;;;;;4917119;28;87139;-84
2022/10/04 07:19:16;;;;;;;31.95;7.43;;;21.90;56.90;;;;;;4916441;28;88591;-85
2022/10/04 07:22:11;;;;;;;44.10;8.25;;;22.00;57.10;;;;;;4917377;28;88934;-84
2022/10/04 07:24:48;;;;;;;38.20;8.65;;;22.00;57.40;;;;;;4861510;28;91456;-85
2022/10/04 07:27:33;;;;;;;38.38;10.10;;;21.90;57.30;;;;;;4937412;28;87385;-84
2022/10/04 07:30:04;;;;;;;33.42;7.72;;;21.80;57.20;;;;;;4948853;28;87249;-84
2022/10/04 07:32:43;;;;;;;37.45;8.40;;;21.80;57.70;;;;;;4948115;28;89702;-85
2022/10/04 07:35:09;;;;;;;46.17;9.50;;;21.70;58.30;;;;;;4949002;28;89018;-84
2022/10/04 07:38:15;;;;;;;40.53;9.40;;;21.70;58.30;;;;;;4950014;28;87023;-83
2022/10/04 07:41:08;;;;;;;47.70;9.73;;;21.80;58.30;;;;;;4930819;28;87498;-84
2022/10/04 07:43:56;;;;;;;33.35;7.55;;;21.80;57.50;;;;;;4932114;28;91072;-83
2022/10/04 07:46:41;;;;;;;41.67;8.63;;;21.90;57.90;;;;;;4927995;28;87892;-87
2022/10/04 07:49:19;;;;;;;48.00;8.77;;;21.90;57.80;;;;;;4876307;28;87392;-84
2022/10/04 07:52:04;;;;;;;46.28;8.60;;;21.90;56.30;;;;;;4871046;28;87530;-85
2022/10/04 07:55:06;;;;;;;53.05;9.25;;;22.00;57.50;;;;;;4874741;28;89042;-85
2022/10/04 07:57:58;;;;;;;42.88;9.73;;;22.10;57.20;;;;;;4860546;29;90572;-85
2022/10/04 08:00:49;;;;;;;44.13;9.13;;;22.20;56.70;;;;;;4804417;29;88745;-87
2022/10/04 08:03:20;;;;;;;39.08;8.25;;;22.30;56.70;;;;;;4759776;29;87876;-86
2022/10/04 08:06:08;;;;;;;46.97;9.50;;;22.30;56.30;;;;;;4760219;29;87087;-85
2022/10/04 08:09:03;;;;;;;47.50;8.63;;;22.40;56.60;;;;;;4760085;29;92688;-87
2022/10/04 08:11:56;;;;;;;42.85;9.15;;;22.40;56.70;;;;;;4757699;29;87586;-86
2022/10/04 08:14:38;;;;;;;57.03;9.70;;;22.40;57.00;;;;;;4759026;29;91821;-86
2022/10/04 08:17:12;;;;;;;46.45;8.77;;;22.50;57.20;;;;;;4749972;29;92101;-85
2022/10/04 08:20:19;;;;;;;31.17;8.02;;;22.50;57.20;;;;;;4758775;29;88094;-85
2022/10/04 08:23:17;;;;;;;44.45;8.50;;;22.60;57.60;;;;;;4757190;29;87606;-86
2022/10/04 08:26:01;;;;;;;36.75;8.30;;;22.60;57.80;;;;;;4747238;29;88156;-85
2022/10/04 08:31:59;;;;;;;41.25;8.07;;;22.60;58.10;;;;;;4731512;29;88305;-86
2022/10/04 08:34:52;;;;;;;41.63;7.68;;;22.70;58.30;;;;;;4731400;29;87669;-85
2022/10/04 08:37:38;;;;;;;33.10;8.40;;;22.80;58.40;;;;;;4742844;29;87543;-85
2022/10/04 08:40:07;;;;;;;36.92;7.55;;;22.80;58.50;;;;;;4793953;29;88430;-85
2022/10/04 08:42:53;;;;;;;39.05;9.20;;;22.80;58.60;;;;;;4849829;29;88588;-87
2022/10/04 08:45:21;;;;;;;33.08;7.18;;;22.80;58.80;;;;;;4848702;29;87646;-85
2022/10/04 08:48:05;;;;;;;28.15;7.32;;;22.80;58.80;;;;;;4851294;29;87749;-85
2022/10/04 08:51:05;;;;;;;29.70;8.45;;;22.80;58.80;;;;;;4850602;29;93100;-86
2022/10/04 08:53:36;;;;;;;;;;;22.80;59.10;;;;;;4851825;29;92545;-86
2022/10/04 08:56:22;;;;;;;29.92;7.57;;;22.90;58.30;;;;;;4884022;28;88260;-86
2022/10/04 08:59:07;;;;;;;36.22;8.57;;;22.90;58.60;;;;;;4886498;28;87301;-86
2022/10/04 09:02:11;;;;;;;31.25;7.43;;;22.80;58.50;;;;;;4926302;28;88024;-87
2022/10/04 09:05:14;;;;;;;30.77;7.70;;;22.90;58.60;;;;;;4957796;28;88043;-86
2022/10/04 09:07:45;;;;;;;35.83;9.48;;;23.00;58.90;;;;;;4958076;28;87866;-87
2022/10/04 09:10:46;;;;;;;27.40;7.25;;;23.00;59.00;;;;;;4957555;28;87944;-88
2022/10/04 09:13:29;;;;;;;30.38;7.28;;;23.00;58.60;;;;;;4935341;28;88760;-88
2022/10/04 09:16:12;;;;;;;39.50;8.85;;;23.00;58.50;;;;;;4935098;28;88427;-88
2022/10/04 09:19:09;;;;;;;27.75;6.57;;;23.00;58.20;;;;;;4934408;28;87103;-87
2022/10/04 09:22:10;;;;;;;29.23;7.70;;;23.00;58.80;;;;;;4933827;28;87631;-87
2022/10/04 09:25:12;;;;;;;25.40;6.93;;;23.00;58.60;;;;;;4931801;28;90184;-86
2022/10/04 09:28:02;;;;;;;26.77;7.70;;;23.00;58.80;;;;;;4934651;28;89923;-87
2022/10/04 09:31:07;;;;;;;36.05;8.30;;;22.90;58.90;;;;;;4935123;28;87501;-87
2022/10/04 09:33:58;;;;;;;32.05;6.78;;;23.00;59.20;;;;;;4881291;28;88751;-86
2022/10/04 09:37:02;;;;;;;37.40;7.88;;;22.90;59.70;;;;;;4899032;28;88246;-86
2022/10/04 09:39:57;;;;;;;38.97;8.48;;;23.00;59.60;;;;;;4843237;29;88093;-87
2022/10/04 09:42:58;;;;;;;26.95;6.38;;;23.00;60.70;;;;;;4848429;29;87345;-86
2022/10/04 09:45:32;;;;;;;28.48;7.75;;;23.00;59.30;;;;;;4815733;29;90769;-86
2022/10/04 09:48:23;;;;;;;35.35;8.27;;;23.00;60.70;;;;;;4816051;29;91056;-86
2022/10/04 09:51:07;;;;;;;37.13;7.72;;;23.00;60.90;;;;;;4819117;29;87783;-88
2022/10/04 09:53:53;;;;;;;28.58;7.22;;;23.00;62.30;;;;;;4802463;29;88671;-89
2022/10/04 09:56:36;;;;;;;33.67;8.25;;;23.10;62.10;;;;;;4816196;29;91749;-87
2022/10/04 09:59:23;;;;;;;28.23;7.72;;;23.20;61.10;;;;;;4816513;29;89202;-87
2022/10/04 10:02:07;;;;;;;36.40;8.63;;;23.20;60.70;;;;;;4815050;29;88575;-87
2022/10/04 10:05:03;;;;;;;39.83;9.43;;;23.20;61.70;;;;;;4816772;29;87196;-87
2022/10/04 10:07:57;;;;;;;45.17;11.35;;;23.10;61.60;;;;;;4818497;29;86996;-87
2022/10/04 10:13:52;;;;;;;41.15;10.10;;;23.10;61.70;;;;;;4855117;29;86947;-88
2022/10/04 10:16:53;;;;;;;45.35;10.30;;;23.20;62.10;;;;;;4862139;28;86965;-87
2022/10/04 10:19:55;;;;;;;37.97;10.43;;;23.20;61.90;;;;;;4843134;29;87535;-87
2022/10/04 10:22:21;;;;;;;34.03;9.25;;;23.20;61.90;;;;;;4870019;28;92601;-87
2022/10/04 10:25:05;;;;;;;36.35;8.93;;;23.20;62.40;;;;;;4901099;28;89177;-87
2022/10/04 10:27:48;;;;;;;33.45;9.40;;;23.10;60.40;;;;;;4902077;28;87758;-86
2022/10/04 10:30:17;;;;;;;38.55;9.95;;;23.20;62.10;;;;;;4900093;28;87483;-88
2022/10/04 10:32:54;;;;;;;34.15;9.70;;;23.20;62.10;;;;;;4900793;28;88855;-86
2022/10/04 10:35:45;;;;;;;28.60;8.50;;;23.10;61.90;;;;;;4899388;28;92515;-85
2022/10/04 10:38:23;;;;;;;46.05;10.43;;;23.10;62.30;;;;;;4900726;28;87609;-84
2022/10/04 10:41:09;;;;;;;35.17;9.05;;;23.20;61.60;;;;;;4898788;28;87496;-86
2022/10/04 10:43:36;;;;;;;34.60;8.32;;;23.20;61.00;;;;;;4900371;28;87628;-85
2022/10/04 10:46:22;;;;;;;31.65;8.85;;;23.10;61.60;;;;;;4901083;28;88265;-84
2022/10/04 10:49:02;;;;;;;33.58;8.75;;;23.10;61.90;;;;;;4898440;28;88023;-84
2022/10/04 10:51:55;;;;;;;39.05;9.48;;;23.10;61.80;;;;;;4900391;28;87536;-84
2022/10/04 10:54:33;;;;;;;33.90;8.55;;;23.10;61.40;;;;;;4898670;28;91682;-83
2022/10/04 10:57:10;;;;;;;36.30;10.02;;;23.10;60.70;;;;;;4941602;28;90835;-85
2022/10/04 10:59:50;;;;;;;103.80;21.33;;;23.10;60.30;;;;;;4961476;28;87551;-83
2022/10/04 11:02:35;;;;;;;58.08;12.05;;;23.20;60.10;;;;;;4959776;28;91758;-84
2022/10/04 11:05:42;;;;;;;56.15;11.88;;;23.20;59.40;;;;;;4960205;28;88609;-85
2022/10/04 11:08:47;;;;;;;63.95;16.13;;;23.20;58.80;;;;;;4959400;28;88424;-86
2022/10/04 11:11:40;;;;;;;57.40;14.10;;;23.20;59.20;;;;;;4959360;28;87645;-86
2022/10/04 11:14:46;;;;;;;75.93;15.05;;;23.30;59.70;;;;;;4918040;28;87181;-86
2022/10/04 11:17:32;;;;;;;83.95;16.20;;;23.20;59.60;;;;;;4901937;28;90292;-84
2022/10/04 11:20:14;;;;;;;76.20;16.92;;;23.20;60.10;;;;;;4919676;28;89331;-85
2022/10/04 11:22:59;;;;;;;72.70;17.05;;;23.20;60.10;;;;;;4918398;28;87288;-85
2022/10/04 11:26:02;;;;;;;85.10;16.83;;;23.20;60.50;;;;;;4918673;28;87010;-87
2022/10/04 11:29:07;;;;;;;56.15;15.32;;;23.20;60.70;;;;;;4917918;28;87809;-87
2022/10/04 11:32:00;;;;;;;81.53;15.40;;;23.10;61.00;;;;;;4919694;28;91650;-86
2022/10/04 11:35:03;;;;;;;67.35;16.13;;;23.10;61.00;;;;;;4919707;28;87509;-85
2022/10/04 11:37:45;;;;;;;68.10;14.65;;;23.20;61.40;;;;;;4911176;28;86569;-86
2022/10/04 11:40:16;;;;;;;73.72;16.02;;;23.20;61.10;;;;;;4911864;28;90519;-87
2022/10/04 11:42:59;;;;;;;68.93;15.18;;;23.20;61.60;;;;;;4919082;28;87460;-86
2022/10/04 11:45:45;;;;;;;82.97;15.32;;;23.20;61.80;;;;;;4918636;28;88203;-88
2022/10/04 11:48:48;;;;;;;55.25;13.52;;;23.10;61.90;;;;;;4916387;28;90436;-87
2022/10/04 11:52:03;;;;;;;69.68;15.15;;;23.10;62.20;;;;;;4935215;28;91265;-87
2022/10/04 11:54:41;;;;;;;50.97;13.40;;;23.10;62.60;;;;;;4916087;28;91446;-88
2022/10/04 11:57:35;;;;;;;63.08;15.63;;;23.20;62.20;;;;;;4916040;28;89095;-87
2022/10/04 12:00:14;;;;;;;65.35;14.90;;;23.10;62.10;;;;;;4915833;28;87507;-87
2022/10/04 12:02:55;;;;;;;;;;;23.00;62.80;;;;;;4918122;28;88811;-86
2022/10/04 12:05:51;;;;;;;63.80;14.43;;;23.00;62.40;;;;;;4919837;28;91013;-87
2022/10/04 12:08:50;;;;;;;65.13;13.93;;;22.90;62.10;;;;;;4916018;28;87331;-90
2022/10/04 12:15:03;;;;;;;52.28;12.52;;;22.90;61.40;;;;;;4896018;28;92713;-87
2022/10/04 12:17:56;;;;;;;48.10;11.00;;;22.90;61.00;;;;;;4897474;28;92618;-89
2022/10/04 12:20:26;;;;;;;51.53;11.82;;;22.90;60.80;;;;;;4898074;28;88225;-88
2022/10/04 12:23:03;;;;;;;48.42;11.30;;;22.90;60.40;;;;;;4896217;28;88087;-89
2022/10/04 12:26:18;;;;;;;49.10;10.95;;;22.80;60.20;;;;;;4921364;28;87525;-88
2022/10/04 12:28:50;;;;;;;49.22;11.45;;;22.80;60.50;;;;;;4908784;28;87138;-87
2022/10/04 12:31:25;;;;;;;43.75;10.38;;;22.80;61.00;;;;;;4908954;28;87352;-87
2022/10/04 12:34:02;;;;;;;50.17;10.77;;;22.80;61.00;;;;;;4908709;28;87339;-86
2022/10/04 12:36:35;;;;;;;48.60;10.55;;;22.80;61.00;;;;;;4910152;28;87221;-86
2022/10/04 12:39:20;;;;;;;39.83;10.40;;;22.80;61.10;;;;;;4907731;28;88061;-86
2022/10/04 12:42:14;;;;;;;37.38;9.88;;;22.80;61.30;;;;;;4909582;28;88464;-88
2022/10/04 12:45:06;;;;;;;52.65;11.50;;;22.80;61.40;;;;;;4910197;28;90390;-86
2022/10/04 12:47:50;;;;;;;42.78;10.65;;;22.80;61.80;;;;;;4823067;29;92889;-87
2022/10/04 12:50:24;;;;;;;39.35;10.38;;;22.80;61.80;;;;;;4824036;29;92800;-85
2022/10/04 12:52:59;;;;;;;40.10;9.93;;;22.80;62.10;;;;;;4823662;29;86965;-87
2022/10/04 12:55:48;;;;;;;42.63;11.25;;;22.70;62.10;;;;;;4825602;29;87292;-87
2022/10/04 12:58:32;;;;;;;38.03;10.52;;;22.80;62.00;;;;;;4823759;29;89738;-86
2022/10/04 13:01:11;;;;;;;41.30;9.50;;;22.70;62.10;;;;;;4824265;29;88622;-86
2022/10/04 13:04:06;;;;;;;32.28;9.38;;;22.70;62.20;;;;;;4824662;29;87455;-87
2022/10/04 13:06:58;;;;;;;36.20;9.65;;;22.80;62.10;;;;;;4889787;28;88578;-85
2022/10/04 13:09:36;;;;;;;32.03;9.68;;;22.70;62.00;;;;;;4898449;28;91275;-87
2022/10/04 13:12:26;;;;;;;37.03;10.25;;;22.70;62.10;;;;;;4899398;28;90216;-86
2022/10/04 13:14:54;;;;;;;28.40;8.45;;;22.70;62.00;;;;;;4899373;28;87184;-88
2022/10/04 13:17:42;;;;;;;31.80;8.98;;;22.70;62.30;;;;;;4899403;28;87560;-90
2022/10/04 13:20:19;;;;;;;33.75;8.60;;;22.70;60.60;;;;;;4884764;28;91467;-89
2022/10/04 13:23:18;;;;;;;42.00;9.55;;;22.80;60.30;;;;;;4892317;28;89775;-87
2022/10/04 13:26:04;;;;;;;25.40;7.30;;;22.80;60.80;;;;;;4960447;28;87597;-87
2022/10/04 13:28:53;;;;;;;31.35;6.75;;;23.00;60.00;;;;;;4960704;28;87424;-88
2022/10/04 13:31:31;;;;;;;25.23;5.95;;;23.10;59.00;;;;;;4918143;28;88378;-86
2022/10/04 13:34:09;;;;;;;24.55;7.68;;;23.10;58.40;;;;;;4918544;28;87610;-87
2022/10/04 13:36:46;;;;;;;30.23;7.30;;;23.10;59.10;;;;;;4916613;28;87978;-86
2022/10/04 13:39:29;;;;;;;25.27;6.60;;;23.20;59.20;;;;;;4917361;28;87593;-87
2022/10/04 13:42:33;;;;;;;34.72;7.32;;;23.20;59.40;;;;;;4917958;28;88092;-86
2022/10/04 13:45:17;;;;;;;36.42;6.13;;;23.00;59.60;;;;;;4841834;29;87490;-91
2022/10/04 13:48:01;;;;;;;21.58;5.35;;;23.00;58.40;;;;;;4822749;29;87389;-85
2022/10/04 13:51:00;;;;;;;39.17;11.25;;;23.00;58.40;;;;;;4823425;29;94685;-87
2022/10/04 13:56:38;;;;;;;49.13;12.98;;;23.00;59.50;;;;;;4826940;29;89925;-89
2022/10/04 13:59:41;;;;;;;38.47;11.57;;;23.10;60.10;;;;;;4823991;29;87570;-86
2022/10/04 14:02:26;;;;;;;39.30;11.10;;;23.20;59.50;;;;;;4823890;29;87609;-87
2022/10/04 14:05:21;;;;;;;40.33;12.60;;;23.00;59.70;;;;;;4823238;29;89812;-87